Terminal Aerodrome Forecast
Issued by NWS

Home | Current Version | Previous Version | Graphics & Text | Print | Product List | Glossary On
Versions: 1 2 3 4 5 6 7 8 9 10 11 12
000
FTUS41 KCLE 222337
TAFFDY
TAF
KFDY 222337Z 2300/2324 07012KT P6SM SCT250
     FM230600 07007KT P6SM SCT250
     FM231400 11010KT P6SM BKN250
     FM232000 13014KT P6SM BKN050 OVC100=

USA.gov is the U.S. government's official web portal to all federal, state and local government web resources and services.